sensor_id;sensor_type;location;lat;lon;timestamp;pressure;altitude;pressure_sealevel;temperature;humidity
54122;BME280;40029;58.708;50.190;2023-04-02T00:09:20;100134.88;;;5.00;48.58
54122;BME280;40029;58.708;50.190;2023-04-02T00:11:53;100155.53;;;5.03;48.94
54122;BME280;40029;58.708;50.190;2023-04-02T00:14:32;100160.59;;;5.12;48.47
54122;BME280;40029;58.708;50.190;2023-04-02T00:17:04;100056.22;;;4.44;48.16
54122;BME280;40029;58.708;50.190;2023-04-02T00:19:45;100158.88;;;5.11;48.53
54122;BME280;40029;58.708;50.190;2023-04-02T00:22:23;100104.06;;;4.82;48.46
54122;BME280;40029;58.708;50.190;2023-04-02T00:24:55;100156.31;;;5.11;48.13
54122;BME280;40029;58.708;50.190;2023-04-02T00:27:29;100149.47;;;5.06;48.10
54122;BME280;40029;58.708;50.190;2023-04-02T00:30:01;100159.66;;;5.18;48.23
54122;BME280;40029;58.708;50.190;2023-04-02T00:32:34;100055.31;;;4.51;48.70
54122;BME280;40029;58.708;50.190;2023-04-02T00:35:14;100162.31;;;5.12;48.40
54122;BME280;40029;58.708;50.190;2023-04-02T00:37:48;100104.06;;;4.82;48.11
54122;BME280;40029;58.708;50.190;2023-04-02T00:40:24;100168.31;;;5.18;48.29
54122;BME280;40029;58.708;50.190;2023-04-02T00:42:59;100151.13;;;5.11;48.42
54122;BME280;40029;58.708;50.190;2023-04-02T00:45:37;100112.63;;;4.87;48.11
54122;BME280;40029;58.708;50.190;2023-04-02T00:48:19;100165.56;;;5.32;47.69
54122;BME280;40029;58.708;50.190;2023-04-02T00:50:52;100101.50;;;4.79;48.24
54122;BME280;40029;58.708;50.190;2023-04-02T00:53:27;100116.09;;;4.86;47.86
54122;BME280;40029;58.708;50.190;2023-04-02T00:56:00;100116.09;;;4.86;48.08
54122;BME280;40029;58.708;50.190;2023-04-02T00:58:35;100132.34;;;4.95;48.28
54122;BME280;40029;58.708;50.190;2023-04-02T01:01:18;100170.91;;;5.15;48.01
54122;BME280;40029;58.708;50.190;2023-04-02T01:03:57;100145.28;;;4.92;48.34
54122;BME280;40029;58.708;50.190;2023-04-02T01:06:34;100174.31;;;5.19;48.07
54122;BME280;40029;58.708;50.190;2023-04-02T01:09:40;100182.03;;;5.23;47.82
54122;BME280;40029;58.708;50.190;2023-04-02T01:12:23;100176.06;;;5.15;48.26
54122;BME280;40029;58.708;50.190;2023-04-02T01:23:10;100122.91;;;4.94;47.90
54122;BME280;40029;58.708;50.190;2023-04-02T01:25:52;100176.00;;;5.21;47.47
54122;BME280;40029;58.708;50.190;2023-04-02T01:31:27;100142.56;;;5.05;47.58
54122;BME280;40029;58.708;50.190;2023-04-02T01:33:59;100132.31;;;4.98;47.12
54122;BME280;40029;58.708;50.190;2023-04-02T01:44:52;100177.47;;;5.47;46.76
54122;BME280;40029;58.708;50.190;2023-04-02T01:47:24;100132.94;;;5.22;47.45
54122;BME280;40029;58.708;50.190;2023-04-02T01:50:03;100133.00;;;5.19;47.46
54122;BME280;40029;58.708;50.190;2023-04-02T01:52:42;100194.66;;;5.53;46.78
54122;BME280;40029;58.708;50.190;2023-04-02T01:55:20;100143.34;;;5.16;47.13
54122;BME280;40029;58.708;50.190;2023-04-02T01:57:55;100185.38;;;5.32;47.15
54122;BME280;40029;58.708;50.190;2023-04-02T02:00:29;100199.91;;;5.45;47.16
54122;BME280;40029;58.708;50.190;2023-04-02T02:03:02;100143.47;;;5.02;47.34
54122;BME280;40029;58.708;50.190;2023-04-02T02:05:36;100174.22;;;5.26;47.09
54122;BME280;40029;58.708;50.190;2023-04-02T02:11:09;100200.84;;;5.35;47.12
54122;BME280;40029;58.708;50.190;2023-04-02T02:13:52;100145.09;;;5.12;46.48
54122;BME280;40029;58.708;50.190;2023-04-02T02:16:26;100157.19;;;5.07;46.60
54122;BME280;40029;58.708;50.190;2023-04-02T02:19:01;100207.69;;;5.40;47.08
54122;BME280;40029;58.708;50.190;2023-04-02T02:21:49;100207.56;;;5.51;46.89
54122;BME280;40029;58.708;50.190;2023-04-02T02:24:24;100154.50;;;5.19;46.68
54122;BME280;40029;58.708;50.190;2023-04-02T02:30:20;100226.38;;;5.64;46.32
54122;BME280;40029;58.708;50.190;2023-04-02T02:33:13;100196.44;;;5.43;46.33
54122;BME280;40029;58.708;50.190;2023-04-02T02:35:56;100228.16;;;5.60;46.16
54122;BME280;40029;58.708;50.190;2023-04-02T02:41:45;100186.97;;;5.43;46.43
54122;BME280;40029;58.708;50.190;2023-04-02T02:44:23;100224.72;;;5.61;46.71
54122;BME280;40029;58.708;50.190;2023-04-02T02:47:10;100218.69;;;5.61;46.56
54122;BME280;40029;58.708;50.190;2023-04-02T02:49:49;100216.13;;;5.56;46.49
54122;BME280;40029;58.708;50.190;2023-04-02T02:52:33;100182.69;;;5.42;46.64
54122;BME280;40029;58.708;50.190;2023-04-02T02:55:21;100207.47;;;5.60;46.54
54122;BME280;40029;58.708;50.190;2023-04-02T02:58:09;100227.16;;;5.72;46.49
54122;BME280;40029;58.708;50.190;2023-04-02T03:00:53;100189.47;;;5.51;45.97
54122;BME280;40029;58.708;50.190;2023-04-02T03:03:27;100219.41;;;5.72;46.89
54122;BME280;40029;58.708;50.190;2023-04-02T03:06:05;100209.06;;;5.72;46.22
54122;BME280;40029;58.708;50.190;2023-04-02T03:09:10;100215.81;;;5.85;46.55
54122;BME280;40029;58.708;50.190;2023-04-02T03:11:51;100227.00;;;5.86;46.28
54122;BME280;40029;58.708;50.190;2023-04-02T03:14:46;100219.19;;;5.93;46.36
54122;BME280;40029;58.708;50.190;2023-04-02T03:17:24;100228.53;;;6.05;46.26
54122;BME280;40029;58.708;50.190;2023-04-02T03:20:05;100203.66;;;5.96;45.76
54122;BME280;40029;58.708;50.190;2023-04-02T03:22:45;100221.59;;;6.07;45.67
54122;BME280;40029;58.708;50.190;2023-04-02T03:25:41;100236.94;;;6.22;45.87
54122;BME280;40029;58.708;50.190;2023-04-02T03:28:24;100177.81;;;5.90;45.60
54122;BME280;40029;58.708;50.190;2023-04-02T03:31:15;100176.09;;;5.94;45.81
54122;BME280;40029;58.708;50.190;2023-04-02T03:33:59;100215.44;;;6.20;45.25
54122;BME280;40029;58.708;50.190;2023-04-02T03:42:38;100175.09;;;6.06;45.07
54122;BME280;40029;58.708;50.190;2023-04-02T03:47:48;100221.09;;;6.45;44.87
54122;BME280;40029;58.708;50.190;2023-04-02T03:51:06;100243.38;;;6.59;44.97
54122;BME280;40029;58.708;50.190;2023-04-02T03:53:38;100176.50;;;6.30;44.84
54122;BME280;40029;58.708;50.190;2023-04-02T03:56:28;100193.59;;;6.40;44.92
54122;BME280;40029;58.708;50.190;2023-04-02T03:59:23;100232.88;;;6.68;44.24
54122;BME280;40029;58.708;50.190;2023-04-02T04:02:15;100196.03;;;6.50;44.50
54122;BME280;40029;58.708;50.190;2023-04-02T04:04:49;100223.47;;;6.64;44.66
54122;BME280;40029;58.708;50.190;2023-04-02T04:07:37;100216.44;;;6.72;44.05
54122;BME280;40029;58.708;50.190;2023-04-02T04:10:16;100246.41;;;6.88;44.09
54122;BME280;40029;58.708;50.190;2023-04-02T04:12:51;100242.88;;;6.91;44.17
54122;BME280;40029;58.708;50.190;2023-04-02T04:15:58;100242.66;;;7.05;43.77
54122;BME280;40029;58.708;50.190;2023-04-02T04:18:41;100202.44;;;6.82;43.76
54122;BME280;40029;58.708;50.190;2023-04-02T04:21:22;100243.47;;;7.08;43.37
54122;BME280;40029;58.708;50.190;2023-04-02T04:24:12;100192.31;;;6.68;43.44
54122;BME280;40029;58.708;50.190;2023-04-02T04:27:26;100262.53;;;7.06;43.38
54122;BME280;40029;58.708;50.190;2023-04-02T04:32:52;100248.97;;;6.90;43.66
54122;BME280;40029;58.708;50.190;2023-04-02T04:35:43;100251.38;;;7.02;43.32
54122;BME280;40029;58.708;50.190;2023-04-02T04:38:46;100207.81;;;6.71;43.41
54122;BME280;40029;58.708;50.190;2023-04-02T04:41:22;100250.47;;;7.03;43.40
54122;BME280;40029;58.708;50.190;2023-04-02T04:44:25;100262.19;;;7.25;42.92
54122;BME280;40029;58.708;50.190;2023-04-02T04:47:14;100255.22;;;7.31;42.86
54122;BME280;40029;58.708;50.190;2023-04-02T04:49:53;100205.59;;;7.03;43.37
54122;BME280;40029;58.708;50.190;2023-04-02T04:52:36;100171.13;;;6.97;42.80
54122;BME280;40029;58.708;50.190;2023-04-02T04:55:29;100205.81;;;7.38;42.40
54122;BME280;40029;58.708;50.190;2023-04-02T05:00:59;100255.09;;;7.85;42.56
54122;BME280;40029;58.708;50.190;2023-04-02T05:03:38;100252.50;;;7.86;42.12
54122;BME280;40029;58.708;50.190;2023-04-02T05:09:28;100258.38;;;7.94;41.96
54122;BME280;40029;58.708;50.190;2023-04-02T05:21:18;100207.09;;;8.07;41.02
54122;BME280;40029;58.708;50.190;2023-04-02T05:27:01;100198.16;;;8.20;41.13
54122;BME280;40029;58.708;50.190;2023-04-02T05:29:37;100150.88;;;8.06;40.75
54122;BME280;40029;58.708;50.190;2023-04-02T05:32:18;100219.19;;;8.50;40.04
54122;BME280;40029;58.708;50.190;2023-04-02T05:34:53;100233.44;;;8.71;40.48
54122;BME280;40029;58.708;50.190;2023-04-02T05:37:28;100240.84;;;8.88;40.50
54122;BME280;40029;58.708;50.190;2023-04-02T05:40:13;100243.97;;;9.02;40.03
54122;BME280;40029;58.708;50.190;2023-04-02T05:42:51;100215.84;;;8.82;39.36
54122;BME280;40029;58.708;50.190;2023-04-02T05:45:34;100220.91;;;8.87;38.71
54122;BME280;40029;58.708;50.190;2023-04-02T05:48:19;100220.19;;;8.82;38.95
54122;BME280;40029;58.708;50.190;2023-04-02T05:50:53;100165.50;;;8.50;39.19
54122;BME280;40029;58.708;50.190;2023-04-02T05:53:34;100221.72;;;8.90;39.01
54122;BME280;40029;58.708;50.190;2023-04-02T05:59:10;100247.34;;;9.06;38.70
54122;BME280;40029;58.708;50.190;2023-04-02T06:04:59;100213.06;;;8.90;38.89
54122;BME280;40029;58.708;50.190;2023-04-02T06:07:47;100271.00;;;9.29;39.10
54122;BME280;40029;58.708;50.190;2023-04-02T06:10:24;100206.72;;;9.01;38.42
54122;BME280;40029;58.708;50.190;2023-04-02T06:13:07;100266.56;;;9.34;37.61
54122;BME280;40029;58.708;50.190;2023-04-02T06:15:43;100273.63;;;9.29;38.31
54122;BME280;40029;58.708;50.190;2023-04-02T06:18:27;100252.91;;;9.26;38.64
54122;BME280;40029;58.708;50.190;2023-04-02T06:21:02;100265.69;;;9.34;38.09
54122;BME280;40029;58.708;50.190;2023-04-02T06:23:54;100232.13;;;9.24;37.28
54122;BME280;40029;58.708;50.190;2023-04-02T06:26:32;100273.25;;;9.44;37.83
54122;BME280;40029;58.708;50.190;2023-04-02T06:29:34;100274.03;;;9.46;38.00
54122;BME280;40029;58.708;50.190;2023-04-02T06:32:12;100217.72;;;9.11;37.90
54122;BME280;40029;58.708;50.190;2023-04-02T06:34:46;100208.47;;;9.01;37.65
54122;BME280;40029;58.708;50.190;2023-04-02T06:37:27;100245.06;;;9.27;37.81
54122;BME280;40029;58.708;50.190;2023-04-02T06:43:27;100222.69;;;9.20;37.01
54122;BME280;40029;58.708;50.190;2023-04-02T06:46:16;100260.97;;;9.49;37.62
54122;BME280;40029;58.708;50.190;2023-04-02T06:52:03;100256.69;;;9.47;37.48
54122;BME280;40029;58.708;50.190;2023-04-02T06:54:35;100259.28;;;9.48;37.72
54122;BME280;40029;58.708;50.190;2023-04-02T06:57:11;100244.91;;;9.34;38.11
54122;BME280;40029;58.708;50.190;2023-04-02T06:59:45;100268.50;;;9.60;37.25
54122;BME280;40029;58.708;50.190;2023-04-02T07:02:34;100269.91;;;9.72;37.21
54122;BME280;40029;58.708;50.190;2023-04-02T07:05:08;100263.13;;;9.66;37.81
54122;BME280;40029;58.708;50.190;2023-04-02T07:07:42;100286.84;;;9.88;37.23
54122;BME280;40029;58.708;50.190;2023-04-02T07:10:15;100247.59;;;9.63;37.39
54122;BME280;40029;58.708;50.190;2023-04-02T07:12:49;100287.88;;;9.83;36.96
54122;BME280;40029;58.708;50.190;2023-04-02T07:15:20;100268.81;;;9.82;37.71
54122;BME280;40029;58.708;50.190;2023-04-02T07:17:53;100272.31;;;9.80;37.04
54122;BME280;40029;58.708;50.190;2023-04-02T07:20:31;100244.72;;;9.74;36.40
54122;BME280;40029;58.708;50.190;2023-04-02T07:23:06;100282.94;;;10.05;36.94
54122;BME280;40029;58.708;50.190;2023-04-02T07:25:37;100241.09;;;9.80;36.67
54122;BME280;40029;58.708;50.190;2023-04-02T07:28:08;100239.47;;;9.75;36.80
54122;BME280;40029;58.708;50.190;2023-04-02T07:30:40;100234.47;;;9.68;36.88
54122;BME280;40029;58.708;50.190;2023-04-02T07:33:15;100251.56;;;9.76;36.79
54122;BME280;40029;58.708;50.190;2023-04-02T07:35:47;100273.81;;;9.88;36.35
54122;BME280;40029;58.708;50.190;2023-04-02T07:38:19;100272.28;;;9.81;37.01
54122;BME280;40029;58.708;50.190;2023-04-02T07:40:50;100250.31;;;9.60;37.14
54122;BME280;40029;58.708;50.190;2023-04-02T07:43:21;100240.88;;;9.56;37.04
54122;BME280;40029;58.708;50.190;2023-04-02T07:45:53;100242.72;;;9.51;37.40
54122;BME280;40029;58.708;50.190;2023-04-02T07:48:24;100234.34;;;9.40;37.55
54122;BME280;40029;58.708;50.190;2023-04-02T07:50:55;100242.97;;;9.42;37.87
54122;BME280;40029;58.708;50.190;2023-04-02T07:53:30;100293.44;;;9.69;37.29
54122;BME280;40029;58.708;50.190;2023-04-02T07:56:03;100303.75;;;9.72;37.92
54122;BME280;40029;58.708;50.190;2023-04-02T07:58:34;100254.50;;;9.30;38.12
54122;BME280;40029;58.708;50.190;2023-04-02T08:01:14;100288.78;;;9.47;38.68
54122;BME280;40029;58.708;50.190;2023-04-02T08:03:46;100297.47;;;9.46;38.23
54122;BME280;40029;58.708;50.190;2023-04-02T08:06:18;100293.44;;;9.35;38.93
54122;BME280;40029;58.708;50.190;2023-04-02T08:08:49;100291.97;;;9.23;39.28
54122;BME280;40029;58.708;50.190;2023-04-02T08:11:20;100305.72;;;9.28;39.11
54122;BME280;40029;58.708;50.190;2023-04-02T08:13:51;100288.44;;;9.25;39.11
54122;BME280;40029;58.708;50.190;2023-04-02T08:16:22;100306.50;;;9.32;39.49
54122;BME280;40029;58.708;50.190;2023-04-02T08:18:54;100296.78;;;9.40;39.61
54122;BME280;40029;58.708;50.190;2023-04-02T08:21:26;100314.69;;;9.52;39.37
54122;BME280;40029;58.708;50.190;2023-04-02T08:23:57;100282.50;;;9.55;40.00
54122;BME280;40029;58.708;50.190;2023-04-02T08:26:28;100208.25;;;9.43;38.81
54122;BME280;40029;58.708;50.190;2023-04-02T08:28:59;100267.50;;;9.97;39.34
54122;BME280;40029;58.708;50.190;2023-04-02T08:31:30;100291.78;;;10.30;38.75
54122;BME280;40029;58.708;50.190;2023-04-02T08:34:02;100238.84;;;9.98;38.49
54122;BME280;40029;58.708;50.190;2023-04-02T08:36:35;100240.03;;;10.18;38.21
54122;BME280;40029;58.708;50.190;2023-04-02T08:39:08;100244.84;;;10.33;38.13
54122;BME280;40029;58.708;50.190;2023-04-02T08:47:09;100271.28;;;10.18;38.05
54122;BME280;40029;58.708;50.190;2023-04-02T08:52:30;100267.78;;;10.50;37.69
54122;BME280;40029;58.708;50.190;2023-04-02T08:55:04;100300.94;;;10.73;37.63
54122;BME280;40029;58.708;50.190;2023-04-02T09:00:40;100333.72;;;10.82;36.85
54122;BME280;40029;58.708;50.190;2023-04-02T09:03:17;100327.34;;;10.62;36.88
54122;BME280;40029;58.708;50.190;2023-04-02T09:05:49;100276.03;;;10.35;37.65
54122;BME280;40029;58.708;50.190;2023-04-02T09:08:24;100274.69;;;10.51;36.86
54122;BME280;40029;58.708;50.190;2023-04-02T09:13:32;100318.22;;;11.05;36.68
54122;BME280;40029;58.708;50.190;2023-04-02T09:16:10;100292.44;;;10.96;36.53
54122;BME280;40029;58.708;50.190;2023-04-02T09:18:43;100301.97;;;10.97;36.70
54122;BME280;40029;58.708;50.190;2023-04-02T09:23:57;100339.97;;;11.32;36.06
54122;BME280;40029;58.708;50.190;2023-04-02T09:26:31;100323.09;;;11.42;36.21
54122;BME280;40029;58.708;50.190;2023-04-02T09:35:24;100329.19;;;11.69;35.15
54122;BME280;40029;58.708;50.190;2023-04-02T09:38:21;100291.97;;;11.64;34.38
54122;BME280;40029;58.708;50.190;2023-04-02T09:43:25;100346.78;;;11.64;34.67
54122;BME280;40029;58.708;50.190;2023-04-02T09:46:03;100347.16;;;11.79;33.57
54122;BME280;40029;58.708;50.190;2023-04-02T09:48:49;100343.63;;;11.80;33.55
54122;BME280;40029;58.708;50.190;2023-04-02T09:51:32;100337.50;;;11.81;33.69
54122;BME280;40029;58.708;50.190;2023-04-02T09:54:05;100345.09;;;11.88;33.93
54122;BME280;40029;58.708;50.190;2023-04-02T09:56:38;100338.06;;;11.64;33.33
54122;BME280;40029;58.708;50.190;2023-04-02T09:59:18;100304.81;;;11.44;34.18
54122;BME280;40029;58.708;50.190;2023-04-02T10:10:03;100361.19;;;12.26;33.45
54122;BME280;40029;58.708;50.190;2023-04-02T10:13:14;100341.13;;;12.28;33.00
54122;BME280;40029;58.708;50.190;2023-04-02T10:15:45;100346.28;;;12.30;33.00
54122;BME280;40029;58.708;50.190;2023-04-02T10:21:14;100358.56;;;12.28;33.15
54122;BME280;40029;58.708;50.190;2023-04-02T10:23:47;100309.56;;;12.09;32.44
54122;BME280;40029;58.708;50.190;2023-04-02T10:40:47;100369.34;;;12.65;31.77
54122;BME280;40029;58.708;50.190;2023-04-02T10:43:37;100362.88;;;12.52;31.59
54122;BME280;40029;58.708;50.190;2023-04-02T10:54:49;100373.84;;;12.85;31.55
54122;BME280;40029;58.708;50.190;2023-04-02T10:57:39;100376.94;;;12.96;31.52
54122;BME280;40029;58.708;50.190;2023-04-02T11:03:12;100344.34;;;12.82;31.36
54122;BME280;40029;58.708;50.190;2023-04-02T11:05:52;100331.53;;;12.75;30.76
54122;BME280;40029;58.708;50.190;2023-04-02T11:08:46;100372.97;;;13.08;30.15
54122;BME280;40029;58.708;50.190;2023-04-02T11:11:23;100373.88;;;13.07;30.72
54122;BME280;40029;58.708;50.190;2023-04-02T11:14:04;100381.38;;;13.40;30.05
54122;BME280;40029;58.708;50.190;2023-04-02T11:16:41;100326.38;;;13.18;30.37
54122;BME280;40029;58.708;50.190;2023-04-02T11:22:15;100377.91;;;13.82;29.63
54122;BME280;40029;58.708;50.190;2023-04-02T11:24:50;100378.56;;;13.87;30.09
54122;BME280;40029;58.708;50.190;2023-04-02T11:30:15;100323.75;;;13.82;29.54
54122;BME280;40029;58.708;50.190;2023-04-02T11:32:50;100361.94;;;14.08;29.22
54122;BME280;40029;58.708;50.190;2023-04-02T11:40:51;100308.16;;;14.20;28.06
54122;BME280;40029;58.708;50.190;2023-04-02T11:52:03;100370.41;;;14.74;27.81
54122;BME280;40029;58.708;50.190;2023-04-02T11:54:36;100366.31;;;14.88;27.40
54122;BME280;40029;58.708;50.190;2023-04-02T12:00:11;100364.31;;;15.48;26.68
54122;BME280;40029;58.708;50.190;2023-04-02T12:11:44;100314.38;;;16.99;23.73
54122;BME280;40029;58.708;50.190;2023-04-02T12:17:28;100365.00;;;17.20;22.14
54122;BME280;40029;58.708;50.190;2023-04-02T12:22:46;100371.81;;;18.01;22.42
54122;BME280;40029;58.708;50.190;2023-04-02T12:30:40;100359.53;;;17.85;22.15
54122;BME280;40029;58.708;50.190;2023-04-02T12:35:55;100367.66;;;17.96;21.93
54122;BME280;40029;58.708;50.190;2023-04-02T12:38:33;100326.75;;;17.13;21.33
54122;BME280;40029;58.708;50.190;2023-04-02T12:44:02;100377.81;;;17.27;22.49
54122;BME280;40029;58.708;50.190;2023-04-02T12:46:34;100372.44;;;17.28;23.03
54122;BME280;40029;58.708;50.190;2023-04-02T12:49:10;100334.66;;;17.13;22.97
54122;BME280;40029;58.708;50.190;2023-04-02T12:51:45;100324.72;;;17.18;22.89
54122;BME280;40029;58.708;50.190;2023-04-02T12:54:18;100372.41;;;17.60;22.74
54122;BME280;40029;58.708;50.190;2023-04-02T12:56:52;100312.22;;;17.22;22.72
54122;BME280;40029;58.708;50.190;2023-04-02T12:59:33;100371.22;;;17.49;22.02
54122;BME280;40029;58.708;50.190;2023-04-02T13:02:22;100363.72;;;17.58;21.96
54122;BME280;40029;58.708;50.190;2023-04-02T13:04:56;100350.34;;;17.46;21.89
54122;BME280;40029;58.708;50.190;2023-04-02T13:07:31;100371.91;;;17.37;21.91
54122;BME280;40029;58.708;50.190;2023-04-02T13:10:05;100337.63;;;17.07;22.21
54122;BME280;40029;58.708;50.190;2023-04-02T13:12:57;100371.94;;;17.21;21.99
54122;BME280;40029;58.708;50.190;2023-04-02T13:15:31;100376.97;;;17.26;22.16
54122;BME280;40029;58.708;50.190;2023-04-02T13:21:38;100380.00;;;17.18;22.22
54122;BME280;40029;58.708;50.190;2023-04-02T13:23:44;100338.44;;;17.39;22.12
54122;BME280;40029;58.708;50.190;2023-04-02T13:26:19;100373.75;;;17.83;22.29
54122;BME280;40029;58.708;50.190;2023-04-02T13:31:59;100378.66;;;18.47;21.19
54122;BME280;40029;58.708;50.190;2023-04-02T13:34:31;100329.78;;;18.70;20.88
54122;BME280;40029;58.708;50.190;2023-04-02T13:37:02;100351.53;;;19.15;20.30
54122;BME280;40029;58.708;50.190;2023-04-02T13:39:33;100354.28;;;19.14;19.92
54122;BME280;40029;58.708;50.190;2023-04-02T13:42:05;100364.91;;;18.85;20.21
54122;BME280;40029;58.708;50.190;2023-04-02T13:44:38;100338.16;;;17.76;21.24
54122;BME280;40029;58.708;50.190;2023-04-02T13:47:13;100298.41;;;17.48;21.18
54122;BME280;40029;58.708;50.190;2023-04-02T13:49:44;100379.97;;;17.82;21.65
54122;BME280;40029;58.708;50.190;2023-04-02T13:52:15;100338.19;;;17.44;21.95
54122;BME280;40029;58.708;50.190;2023-04-02T13:57:20;100370.06;;;17.23;22.33
54122;BME280;40029;58.708;50.190;2023-04-02T13:59:51;100336.59;;;16.94;22.43
54122;BME280;40029;58.708;50.190;2023-04-02T14:02:24;100373.16;;;17.00;22.55
54122;BME280;40029;58.708;50.190;2023-04-02T14:10:51;100394.97;;;16.01;24.37
54122;BME280;40029;58.708;50.190;2023-04-02T14:13:50;100392.59;;;15.60;25.15
54122;BME280;40029;58.708;50.190;2023-04-02T14:21:59;100397.06;;;15.03;26.10
54122;BME280;40029;58.708;50.190;2023-04-02T14:27:38;100402.56;;;14.78;26.61
54122;BME280;40029;58.708;50.190;2023-04-02T14:30:27;100364.34;;;14.33;26.88
54122;BME280;40029;58.708;50.190;2023-04-02T14:42:21;100360.25;;;13.87;27.82
54122;BME280;40029;58.708;50.190;2023-04-02T14:45:18;100350.06;;;13.79;27.85
54122;BME280;40029;58.708;50.190;2023-04-02T14:48:21;100394.22;;;13.88;28.48
54122;BME280;40029;58.708;50.190;2023-04-02T14:50:50;100399.38;;;13.69;28.85
54122;BME280;40029;58.708;50.190;2023-04-02T14:53:30;100335.78;;;13.23;29.05
54122;BME280;40029;58.708;50.190;2023-04-02T14:56:08;100304.19;;;12.83;29.65
54122;BME280;40029;58.708;50.190;2023-04-02T14:59:14;100350.63;;;12.99;30.30
54122;BME280;40029;58.708;50.190;2023-04-02T15:01:42;100354.63;;;12.86;30.57
54122;BME280;40029;58.708;50.190;2023-04-02T15:04:20;100350.09;;;12.68;30.57
54122;BME280;40029;58.708;50.190;2023-04-02T15:06:58;100415.31;;;12.96;30.54
54122;BME280;40029;58.708;50.190;2023-04-02T15:09:41;100382.22;;;12.71;31.28
54122;BME280;40029;58.708;50.190;2023-04-02T15:12:26;100418.25;;;12.87;30.80
54122;BME280;40029;58.708;50.190;2023-04-02T15:15:13;100411.81;;;12.95;31.00
54122;BME280;40029;58.708;50.190;2023-04-02T15:17:48;100408.91;;;12.56;30.71
54122;BME280;40029;58.708;50.190;2023-04-02T15:20:19;100401.03;;;12.33;31.35
54122;BME280;40029;58.708;50.190;2023-04-02T15:23:00;100416.31;;;12.45;31.33
54122;BME280;40029;58.708;50.190;2023-04-02T15:28:42;100414.28;;;12.28;31.49
54122;BME280;40029;58.708;50.190;2023-04-02T15:31:17;100369.34;;;11.92;32.15
54122;BME280;40029;58.708;50.190;2023-04-02T15:33:52;100420.78;;;12.16;31.87
54122;BME280;40029;58.708;50.190;2023-04-02T15:39:20;100431.53;;;12.07;32.62
54122;BME280;40029;58.708;50.190;2023-04-02T15:42:14;100419.97;;;11.88;32.43
54122;BME280;40029;58.708;50.190;2023-04-02T15:45:04;100433.13;;;11.85;32.77
54122;BME280;40029;58.708;50.190;2023-04-02T15:50:48;100379.00;;;11.35;33.07
54122;BME280;40029;58.708;50.190;2023-04-02T15:53:27;100432.38;;;11.53;33.13
54122;BME280;40029;58.708;50.190;2023-04-02T15:59:07;100431.97;;;11.39;33.99
54122;BME280;40029;58.708;50.190;2023-04-02T16:07:35;100440.38;;;10.89;34.43
54122;BME280;40029;58.708;50.190;2023-04-02T16:10:21;100450.16;;;10.81;34.43
54122;BME280;40029;58.708;50.190;2023-04-02T16:12:55;100448.72;;;10.71;34.79
54122;BME280;40029;58.708;50.190;2023-04-02T16:15:34;100400.31;;;10.30;35.43
54122;BME280;40029;58.708;50.190;2023-04-02T16:18:11;100442.34;;;10.50;35.45
54122;BME280;40029;58.708;50.190;2023-04-02T16:20:47;100386.94;;;10.09;35.94
54122;BME280;40029;58.708;50.190;2023-04-02T16:23:28;100423.78;;;10.30;35.72
54122;BME280;40029;58.708;50.190;2023-04-02T16:28:59;100444.16;;;10.11;36.00
54122;BME280;40029;58.708;50.190;2023-04-02T16:37:30;100393.53;;;9.54;36.61
54122;BME280;40029;58.708;50.190;2023-04-02T16:43:12;100443.53;;;9.67;36.93
54122;BME280;40029;58.708;50.190;2023-04-02T16:48:56;100443.78;;;9.55;37.33
54122;BME280;40029;58.708;50.190;2023-04-02T16:54:21;100410.94;;;9.12;37.34
54122;BME280;40029;58.708;50.190;2023-04-02T17:02:59;100456.09;;;9.08;38.49
54122;BME280;40029;58.708;50.190;2023-04-02T17:05:49;100403.38;;;8.59;38.42
54122;BME280;40029;58.708;50.190;2023-04-02T17:08:56;100459.03;;;8.92;38.92
54122;BME280;40029;58.708;50.190;2023-04-02T17:11:52;100458.25;;;8.87;38.80
54122;BME280;40029;58.708;50.190;2023-04-02T17:14:52;100458.94;;;8.97;38.42
54122;BME280;40029;58.708;50.190;2023-04-02T17:17:27;100453.28;;;8.76;38.38
54122;BME280;40029;58.708;50.190;2023-04-02T17:19:59;100454.34;;;8.65;38.23
54122;BME280;40029;58.708;50.190;2023-04-02T17:22:30;100422.00;;;8.35;38.81
54122;BME280;40029;58.708;50.190;2023-04-02T17:25:03;100425.47;;;8.34;38.95
54122;BME280;40029;58.708;50.190;2023-04-02T17:27:36;100460.78;;;8.45;38.88
54122;BME280;40029;58.708;50.190;2023-04-02T17:30:37;100471.00;;;8.55;38.97
54122;BME280;40029;58.708;50.190;2023-04-02T17:33:17;100472.94;;;8.43;39.51
54122;BME280;40029;58.708;50.190;2023-04-02T17:44:26;100468.16;;;8.17;40.01
54122;BME280;40029;58.708;50.190;2023-04-02T17:52:57;100461.34;;;8.12;39.57
54122;BME280;40029;58.708;50.190;2023-04-02T17:58:58;100477.91;;;8.05;39.58
54122;BME280;40029;58.708;50.190;2023-04-02T18:01:41;100468.59;;;7.91;39.64
54122;BME280;40029;58.708;50.190;2023-04-02T18:04:39;100478.94;;;7.94;39.81
54122;BME280;40029;58.708;50.190;2023-04-02T18:10:45;100475.59;;;7.85;40.40
54122;BME280;40029;58.708;50.190;2023-04-02T18:27:36;100481.22;;;7.56;40.21
54122;BME280;40029;58.708;50.190;2023-04-02T18:30:31;100478.75;;;7.48;40.35
54122;BME280;40029;58.708;50.190;2023-04-02T18:42:04;100475.53;;;7.29;40.71
54122;BME280;40029;58.708;50.190;2023-04-02T18:50:17;100468.56;;;7.36;41.01
54122;BME280;40029;58.708;50.190;2023-04-02T18:52:49;100366.84;;;6.55;40.76
54122;BME280;40029;58.708;50.190;2023-04-02T18:55:24;100413.13;;;6.80;40.96
54122;BME280;40029;58.708;50.190;2023-04-02T18:58:08;100468.97;;;7.05;40.77
54122;BME280;40029;58.708;50.190;2023-04-02T19:00:43;100473.28;;;7.03;40.53